Newport, ME (04953)

2:37 PM EDT on August 28, 2015 (GMT -0400)
Downtown Newport | | Change Station
CLOSE
Current Station
Personal Weather Station
Location: Newport, ME
Elevation: 227 ft
Nearby Weather Stations

Elev 227 ft 44.84 °N, 69.28 °W | Updated 6 seconds ago

Partly Cloudy
Partly Cloudy
74.3 °F
Feels Like 77 °F
N
2.0
Wind Variable Wind from NW
Gusts 2.0 mph

Today
High -- | Low -- °F
--% Chance of Precip.
Yesterday
High -- | Low -- °F
Precip. -- in
5:54 AM 7:21 PM
Waxing Gibbous, 98% visible
Pressure 30.08 in
Visibility 10.0 miles
Clouds Scattered Clouds 4500 ft
Heat Index 77 °F
Dew Point 61 °F
Humidity 64%
Rainfall 0.00 in
Snow Depth Not available.
UV 6 out of 12
Pollen 7.40 out of 12
Air Quality Not available.
Flu Activity Not available.
METAR KBGR 281753Z VRB03KT 10SM SCT045 23/12 A3008 RMK AO2 SLP184 T02330117 10239 20167 56009
Pressure 30.08 in
Visibility 10.0 miles
Clouds Scattered Clouds 4500 ft
Heat Index 77 °F
Dew Point 61 °F
Humidity 64%
Rainfall 0.00 in
Snow Depth Not available.
UV 6 out of 12
Pollen 7.40 out of 12
Air Quality Not available.
Flu Activity Not available.
METAR KBGR 281753Z VRB03KT 10SM SCT045 23/12 A3008 RMK AO2 SLP184 T02330117 10239 20167 56009

10-Day Weather Forecast

×

Almanac

Astronomy

Aug. 28, 2015 Rise Set
Actual Time
Civil Twilight
Nautical Twilight
Astronomical Twilight
Moon
Length of Visible Light
Length of Day
Tomorrow will be .
, % of the Moon is Illuminated

Today's Extremes

State Highs State Lows

Community

WunderPhotos

Upload Photos

1,850,453 photos uploaded!

WunderBlogs® & News

Nearby

Air Quality

  Air Quality AQ Index Pollutant
Not available.

Snow Depth

Station Depth Elevation

Earthquake Activity

City Distance Mag. Time & Date
Minimum magnitude displayed is 2.5.

Coastal Water Temperatures

Place Temperature

Stations

Nearby Weather Stations

Station Location Temp. Windchill Dew Point Humidity Wind Precip. Elev Updated Type